Latest Weather Observations for Cressy

IDT60801

Issued at 6:32 pm EST Sunday 24 July 2016 (issued every 30 minutes, with the page automatically refreshed every 10 minutes)

About weather observations | Map of weather stations | Latest weather observations for TAS | Other Formats
Station Details ID: 091306 Name: CRESSY RESEARCH STATION Lat: -41.73 Lon: 147.08 Height: 148.0 m
Data from the previous 72 hours. | See also: Recent months at Cressy
Date/Time
EST
Temp
°C
App
Temp
°C
Dew
Point
°C
Rel
Hum
%
Delta-T
°C
Wind Press
QNH
hPa
Press
MSL
hPa
Rain since
9am
mm
Dir  Spd
km/h
Gust
km/h
Spd
kts
Gust
kts
24/06:30pm 6.6 2.5 4.6 87 0.9 N 15 19 8 10 - - 0.0
24/06:00pm 6.6 1.7 4.3 85 1.0 NNW 19 22 10 12 - - 0.0
24/05:30pm 6.7 2.2 4.4 85 1.0 NNW 17 19 9 10 - - 0.0
24/05:00pm 7.6 2.6 3.8 77 1.6 NNW 19 26 10 14 - - 0.0
24/04:30pm 7.9 3.7 3.9 76 1.7 NNW 15 19 8 10 - - 0.0
24/04:00pm 8.1 2.9 3.4 72 2.0 NNW 20 28 11 15 - - 0.0
24/03:30pm 8.2 3.5 3.3 71 2.1 NNW 17 22 9 12 - - 0.0
24/03:00pm 8.5 2.8 3.1 69 2.3 NNW 22 30 12 16 - - 0.0
24/02:30pm 8.7 3.4 2.9 67 2.5 NW 20 30 11 16 - - 0.0
24/02:00pm 8.3 2.6 3.0 69 2.3 NNW 22 30 12 16 - - 0.0
24/01:30pm 7.9 2.6 2.8 70 2.2 NNW 20 30 11 16 - - 0.0
24/01:00pm 7.7 1.9 2.2 68 2.3 NNW 22 30 12 16 - - 0.0
24/12:30pm 7.4 0.8 2.3 70 2.1 NNW 26 33 14 18 - - 0.0
24/12:00pm 7.2 1.7 2.1 70 2.1 NW 20 30 11 16 - - 0.0
24/11:30am 6.0 3.6 2.1 76 1.6 W 4 9 2 5 - - 0.0
24/11:00am 4.9 1.4 1.2 77 1.5 NW 9 11 5 6 - - 0.0
24/10:30am 4.0 0.5 1.0 81 1.2 NW 9 11 5 6 - - 0.0
24/10:00am 3.5 -0.1 0.4 80 1.2 N 9 13 5 7 - - 0.0
24/09:30am 2.4 -0.2 0.8 89 0.6 ESE 4 7 2 4 - - 0.0
24/09:00am 0.7 -1.7 -0.4 92 0.4 NW 2 6 1 3 - - 0.2
24/08:30am -0.1 -2.3 -1.2 92 0.4 CALM 0 0 0 0 - - 0.2
24/08:00am -0.8 -3.8 -1.8 93 0.3 NNE 4 9 2 5 - - 0.2
24/07:30am -1.0 -3.3 -2.1 92 0.3 CALM 0 0 0 0 - - 0.2
24/07:00am -0.5 -3.9 -1.9 90 0.5 ENE 6 7 3 4 - - 0.2
24/06:30am 0.0 -3.5 -1.4 90 0.5 N 7 11 4 6 - - 0.2
24/06:00am -0.1 -3.4 -1.5 90 0.5 E 6 7 3 4 - - 0.2
24/05:30am 0.2 -2.8 -1.9 86 0.7 WNW 4 9 2 5 - - 0.2
24/05:00am 0.8 -2.5 -1.0 88 0.6 SSE 6 9 3 5 - - 0.2
24/04:30am 0.5 -2.8 -1.4 87 0.7 NNE 6 11 3 6 - - 0.2
24/04:00am 1.2 -3.8 -1.2 84 0.9 NNW 15 20 8 11 - - 0.2
24/03:30am 1.4 -4.4 -1.2 83 0.9 NNW 19 24 10 13 - - 0.2
24/03:00am 0.2 -3.4 -1.9 86 0.7 NE 7 9 4 5 - - 0.2
24/02:30am 1.3 -4.5 -1.4 82 1.0 NNW 19 22 10 12 - - 0.2
24/02:00am 1.4 -4.9 -1.2 83 0.9 NNW 22 28 12 15 - - 0.2
24/01:30am 1.6 -5.5 -1.1 82 1.0 NNW 26 32 14 17 - - 0.2
24/01:00am 1.4 -5.3 -1.2 83 0.9 NNW 24 30 13 16 - - 0.2
24/12:30am 1.0 -4.4 -1.2 85 0.8 N 17 26 9 14 - - 0.2
24/12:00am 1.5 -3.9 -1.2 82 1.0 N 17 26 9 14 - - 0.2
 
Date/Time
EST
Temp
°C
App
Temp
°C
Dew
Point
°C
Rel
Hum
%
Delta-T
°C
Wind Press
QNH
hPa
Press
MSL
hPa
Rain since
9am
mm
Dir  Spd
km/h
Gust
km/h
Spd
kts
Gust
kts
23/11:30pm 2.0 -3.4 -1.4 78 1.2 NW 17 26 9 14 - - 0.2
23/11:00pm 3.1 -2.8 -2.0 69 1.8 NW 19 24 10 13 - - 0.2
23/10:30pm 3.1 -3.0 -2.4 67 1.9 NW 20 32 11 17 - - 0.2
23/10:00pm 3.1 -1.8 -3.0 64 2.1 NNW 13 20 7 11 - - 0.2
23/09:30pm 3.5 -1.3 -2.4 65 2.1 WNW 13 20 7 11 - - 0.2
23/09:00pm 4.2 -0.6 -2.6 61 2.4 WSW 13 24 7 13 - - 0.2
23/08:30pm 4.0 0.0 -2.0 65 2.2 WNW 9 22 5 12 - - 0.2
23/08:00pm 3.5 -1.1 -0.9 73 1.6 SSW 13 20 7 11 - - 0.2
23/07:30pm 4.5 0.9 -2.1 62 2.4 SSW 7 11 4 6 - - 0.2
23/07:00pm 4.1 -1.0 -2.3 63 2.3 W 15 22 8 12 - - 0.2
23/06:30pm 4.3 -1.6 -0.7 70 1.9 W 20 35 11 19 - - 0.2
23/06:00pm 4.2 0.0 -1.2 68 2.0 WNW 11 20 6 11 - - 0.2
23/05:30pm 4.8 -0.6 -1.2 65 2.2 S 17 24 9 13 - - 0.2
23/05:00pm 5.1 0.9 -0.9 65 2.3 WSW 11 15 6 8 - - 0.2
23/04:30pm 4.6 -1.0 0.0 72 1.8 NW 19 24 10 13 - - 0.2
23/04:00pm 4.7 -0.8 2.1 83 1.0 NW 20 30 11 16 - - 0.2
23/03:30pm 4.8 -1.9 1.7 80 1.2 NW 26 35 14 19 - - 0.2
23/03:00pm 4.5 -1.4 2.0 84 1.0 NW 22 28 12 15 - - 0.2
23/02:30pm 4.0 -3.0 1.7 85 0.9 NW 28 43 15 23 - - 0.2
23/02:00pm 5.6 -2.0 0.4 69 2.0 NW 30 35 16 19 - - 0.0
23/01:30pm 6.5 0.0 0.6 66 2.3 NW 24 33 13 18 - - 0.0
23/01:00pm 5.8 -0.4 -0.5 64 2.4 NW 22 35 12 19 - - 0.0
23/12:30pm 6.1 -0.6 1.4 72 1.9 NNW 26 32 14 17 - - 0.0
23/12:00pm 4.9 -1.1 1.0 76 1.5 NW 22 30 12 16 - - 0.0
23/11:30am 4.4 -3.9 -0.2 72 1.7 W 33 43 18 23 - - 0.0
23/11:06am 4.4 -6.4 -0.8 69 1.9 W 46 70 25 38 - - 0.0
23/11:03am 4.6 -6.1 -2.5 60 2.5 W 44 70 24 38 - - 0.0
23/11:00am 5.4 -3.8 -1.5 61 2.6 W 37 61 20 33 - - 0.0
23/10:55am 5.3 -2.2 -1.6 61 2.6 WNW 28 50 15 27 - - 0.0
23/10:30am 4.7 -2.1 0.5 74 1.6 WNW 26 37 14 20 - - 0.0
23/10:06am 5.2 -4.8 -1.7 61 2.5 WSW 41 59 22 32 - - 0.0
23/10:00am 5.7 -4.9 -3.4 52 3.2 WSW 43 59 23 32 - - 0.0
23/09:38am 5.9 -1.9 -3.4 51 3.3 W 28 46 15 25 - - 0.0
23/09:30am 5.7 -1.1 -2.1 57 2.9 WNW 24 39 13 21 - - 0.0
23/09:29am 5.7 -1.1 -2.1 57 2.9 WNW 24 39 13 21 - - 0.0
23/09:00am 3.7 -1.7 -1.4 69 1.9 W 17 28 9 15 - - 11.6
23/08:51am 4.1 -4.0 -0.3 73 1.7 W 32 50 17 27 - - 11.6
23/08:43am 3.9 -2.8 -0.9 71 1.8 NW 24 50 13 27 - - 11.6
23/08:30am 5.0 -0.6 -2.6 58 2.7 NW 17 28 9 15 - - 11.6
23/08:00am 4.6 -0.3 -0.6 69 2.0 NW 15 33 8 18 - - 11.6
23/07:30am 4.1 -1.1 0.3 76 1.5 W 17 30 9 16 - - 11.6
23/07:00am 4.7 -0.8 1.6 80 1.2 NW 20 28 11 15 - - 11.6
23/06:30am 4.4 -0.9 1.8 83 1.0 NNW 19 26 10 14 - - 11.6
23/06:00am 4.5 -0.4 1.9 83 1.0 NW 17 28 9 15 - - 11.6
23/05:30am 4.2 -2.8 2.1 86 0.8 NNW 28 33 15 18 - - 11.6
23/05:00am 3.9 -2.3 1.9 87 0.8 NNW 24 30 13 16 - - 11.6
23/04:30am 4.4 -3.0 2.1 85 0.9 NNW 30 35 16 19 - - 11.6
23/04:00am 4.3 -2.7 2.2 86 0.8 NNW 28 33 15 18 - - 11.6
23/03:30am 4.5 -2.0 2.5 87 0.8 N 26 32 14 17 - - 11.6
23/03:00am 4.7 -1.4 2.6 86 0.9 NNW 24 33 13 18 - - 11.6
23/02:30am 4.9 -1.2 2.6 85 0.9 N 24 30 13 16 - - 11.6
23/02:00am 5.1 -0.6 2.6 84 1.0 N 22 30 12 16 - - 11.6
23/01:30am 4.8 0.7 2.5 85 0.9 N 13 19 7 10 - - 11.6
23/01:00am 4.8 0.0 2.5 85 0.9 N 17 22 9 12 - - 11.6
23/12:30am 5.5 0.1 2.3 80 1.3 NW 20 26 11 14 - - 11.6
23/12:00am 5.1 -1.8 2.5 83 1.1 NNW 28 33 15 18 - - 11.6
 
Date/Time
EST
Temp
°C
App
Temp
°C
Dew
Point
°C
Rel
Hum
%
Delta-T
°C
Wind Press
QNH
hPa
Press
MSL
hPa
Rain since
9am
mm
Dir  Spd
km/h
Gust
km/h
Spd
kts
Gust
kts
22/11:30pm 5.1 -0.6 2.6 84 1.0 NNW 22 28 12 15 - - 11.6
22/11:00pm 5.2 0.0 2.6 83 1.1 N 19 22 10 12 - - 11.6
22/10:30pm 5.6 -0.2 2.4 80 1.3 N 22 30 12 16 - - 11.6
22/10:00pm 5.6 0.7 2.3 79 1.4 N 17 26 9 14 - - 11.6
22/09:30pm 5.7 1.2 2.4 79 1.4 NNE 15 19 8 10 - - 11.6
22/09:00pm 6.5 2.0 2.4 75 1.7 NW 15 20 8 11 - - 11.6
22/08:30pm 6.5 2.0 2.4 75 1.7 NW 15 20 8 11 - - 11.6
22/08:00pm 7.7 1.9 2.2 68 2.3 NW 22 33 12 18 - - 11.6
22/07:30pm 7.3 1.2 3.0 74 1.8 NW 24 30 13 16 - - 11.6
22/07:00pm 7.3 1.7 3.2 75 1.7 NNW 22 30 12 16 - - 11.6
22/06:30pm 7.4 2.7 3.1 74 1.8 NNW 17 20 9 11 - - 11.6
22/06:00pm 8.2 3.5 3.1 70 2.2 NW 17 22 9 12 - - 11.6
22/05:30pm 9.3 2.0 2.6 63 2.9 WNW 30 44 16 24 - - 11.6
22/05:00pm 10.2 1.6 2.6 59 3.3 WNW 37 52 20 28 - - 11.6
22/04:39pm 10.5 3.9 4.0 64 2.9 NW 28 46 15 25 - - 11.6
22/04:30pm 10.5 3.4 3.8 63 3.0 NW 30 43 16 23 - - 11.6
22/04:03pm 11.6 3.9 3.6 58 3.6 NW 33 52 18 28 - - 11.6
22/04:00pm 11.6 4.2 4.1 60 3.4 NW 32 46 17 25 - - 11.6
22/03:42pm 11.8 5.4 5.0 63 3.1 NW 28 46 15 25 - - 11.6
22/03:30pm 12.1 6.8 6.8 70 2.6 NW 24 33 13 18 - - 11.6
22/03:00pm 11.0 4.8 7.7 80 1.6 NW 30 46 16 25 - - 11.6
22/02:42pm 12.2 3.9 7.7 74 2.2 NW 41 59 22 32 - - 11.4
22/02:30pm 11.9 3.4 8.4 79 1.7 NNW 43 57 23 31 - - 11.4
22/02:15pm 11.4 3.0 7.5 77 1.9 NNW 41 59 22 32 - - 11.4
22/02:00pm 11.4 2.5 7.5 77 1.9 NNW 44 59 24 32 - - 11.4
22/01:35pm 10.8 2.9 7.7 81 1.5 NW 39 59 21 32 - - 11.4
22/01:30pm 10.5 2.7 8.1 85 1.2 NNW 39 50 21 27 - - 11.4
22/01:00pm 10.0 2.1 7.8 86 1.1 NW 39 54 21 29 - - 11.2
22/12:45pm 9.8 1.4 7.4 85 1.2 NW 41 59 22 32 - - 10.8
22/12:30pm 10.8 2.8 9.1 89 0.9 NNW 41 56 22 30 - - 7.0
22/12:00pm 12.5 4.7 8.2 75 2.1 NNW 39 48 21 26 - - 5.2
22/11:30am 13.0 4.7 7.9 71 2.5 NNW 41 54 22 29 - - 5.2
22/11:00am 11.9 6.0 8.9 82 1.5 NW 30 39 16 21 - - 5.2
22/10:30am 11.0 5.0 8.8 86 1.1 NW 30 39 16 21 - - 3.2
22/10:00am 12.7 6.2 9.0 78 1.9 NW 33 46 18 25 - - 0.0
22/09:42am 13.0 6.8 9.4 79 1.8 NNW 32 50 17 27 - - 0.0
22/09:30am 12.8 6.1 9.6 81 1.6 NNW 35 44 19 24 - - 0.0
22/09:00am 12.4 5.8 10.0 85 1.2 NNW 35 46 19 25 - - 28.0
22/08:30am 12.3 6.1 10.0 86 1.2 NNW 33 43 18 23 - - 28.0
22/08:17am 12.5 4.4 10.0 85 1.3 NNW 43 61 23 33 - - 28.0
22/08:00am 12.5 4.8 10.2 86 1.2 NNW 41 54 22 29 - - 28.0
22/07:30am 12.5 4.9 10.6 88 1.0 NNW 41 54 22 29 - - 27.8
22/07:00am 12.6 4.0 10.3 86 1.2 NNW 46 57 25 31 - - 27.4
22/06:30am 12.6 3.3 10.7 88 1.0 NNW 50 65 27 35 - - 27.4
22/06:17am 12.7 5.4 11.6 93 0.6 NNW 41 59 22 32 - - 27.0
22/06:00am 12.4 4.6 11.3 93 0.6 NNW 43 57 23 31 - - 26.8
22/05:32am 11.8 5.1 11.0 95 0.4 N 37 56 20 30 - - 24.0
22/05:30am 11.9 4.8 11.0 94 0.5 N 39 56 21 30 - - 24.0
22/05:00am 12.3 4.8 11.0 92 0.7 N 41 65 22 35 - - 20.4
22/04:30am 12.1 4.2 10.8 92 0.7 N 43 65 23 35 - - 19.4
22/04:26am 12.0 4.9 10.9 93 0.6 N 39 57 21 31 - - 19.2
22/04:13am 11.8 5.8 10.9 94 0.5 N 33 54 18 29 - - 17.8
22/04:00am 11.0 7.6 10.5 97 0.3 N 19 30 10 16 - - 17.4
22/03:30am 10.9 7.3 10.4 97 0.3 N 20 28 11 15 - - 15.0
22/03:00am 11.2 8.6 10.6 96 0.3 N 15 24 8 13 - - 11.0
22/02:30am 11.2 7.6 10.6 96 0.3 N 20 30 11 16 - - 8.2
22/02:00am 11.1 7.8 10.8 98 0.2 N 19 26 10 14 - - 6.2
22/01:30am 9.6 7.4 9.3 98 0.1 NW 11 15 6 8 - - 4.6
22/01:00am 8.7 6.2 8.3 97 0.2 N 11 13 6 7 - - 2.2
22/12:30am 8.6 5.7 8.2 97 0.2 N 13 17 7 9 - - 1.2
22/12:00am 8.7 5.8 8.3 97 0.2 NNW 13 17 7 9 - - 1.0
 
Date/Time
EST
Temp
°C
App
Temp
°C
Dew
Point
°C
Rel
Hum
%
Delta-T
°C
Wind Press
QNH
hPa
Press
MSL
hPa
Rain since
9am
mm
Dir  Spd
km/h
Gust
km/h
Spd
kts
Gust
kts
21/11:30pm 8.2 6.4 7.8 97 0.2 N 7 11 4 6 - - 1.0
21/11:00pm 8.1 5.5 7.7 97 0.2 NNW 11 13 6 7 - - 1.0
21/10:30pm 8.2 4.1 7.8 97 0.2 NNW 19 20 10 11 - - 0.8
21/10:00pm 8.2 4.5 7.8 97 0.2 NNW 17 20 9 11 - - 0.8
21/09:30pm 8.3 4.9 7.7 96 0.3 NNW 15 20 8 11 - - 0.8
21/09:00pm 8.1 6.4 7.7 97 0.2 NW 6 11 3 6 - - 0.6
21/08:30pm 8.0 6.3 7.6 97 0.2 N 6 11 3 6 - - 0.6
21/08:00pm 8.1 5.9 7.7 97 0.2 N 9 11 5 6 - - 0.4
21/07:30pm 8.0 5.0 7.6 97 0.2 N 13 17 7 9 - - 0.4
21/07:00pm 8.1 6.2 7.5 96 0.3 N 7 9 4 5 - - 0.4

Other Formats:

Comma delimited format used in spreadsheet applications
http://www.bom.gov.au/fwo/IDT60801/IDT60801.95969.axf

JavaScript Object Notation format (JSON) in row-major order
http://www.bom.gov.au/fwo/IDT60801/IDT60801.95969.json